sensor_id;sensor_type;location;lat;lon;timestamp;pressure;altitude;pressure_sealevel;temperature;humidity
71966;BME280;59836;52.132;5.442;2022-08-19T00:00:20;101411.44;;;18.55;81.93
71966;BME280;59836;52.132;5.442;2022-08-19T00:02:46;101410.78;;;18.49;82.12
71966;BME280;59836;52.132;5.442;2022-08-19T00:05:16;101411.38;;;18.46;82.12
71966;BME280;59836;52.132;5.442;2022-08-19T00:07:43;101420.44;;;18.47;82.44
71966;BME280;59836;52.132;5.442;2022-08-19T00:10:27;101414.13;;;18.46;82.11
71966;BME280;59836;52.132;5.442;2022-08-19T00:12:54;101415.56;;;18.43;82.41
71966;BME280;59836;52.132;5.442;2022-08-19T00:15:31;101425.41;;;18.44;82.21
71966;BME280;59836;52.132;5.442;2022-08-19T00:17:57;101426.03;;;18.41;82.39
71966;BME280;59836;52.132;5.442;2022-08-19T00:20:24;101427.47;;;18.39;82.17
71966;BME280;59836;52.132;5.442;2022-08-19T00:22:51;101427.38;;;18.44;82.08
71966;BME280;59836;52.132;5.442;2022-08-19T00:25:18;101415.56;;;18.43;81.95
71966;BME280;59836;52.132;5.442;2022-08-19T00:27:56;101418.03;;;18.31;82.32
71966;BME280;59836;52.132;5.442;2022-08-19T00:30:41;101419.63;;;18.32;81.99
71966;BME280;59836;52.132;5.442;2022-08-19T00:33:09;101415.78;;;18.33;82.19
71966;BME280;59836;52.132;5.442;2022-08-19T00:35:39;101419.84;;;18.36;82.19
71966;BME280;59836;52.132;5.442;2022-08-19T00:38:10;101413.25;;;18.37;81.62
71966;BME280;59836;52.132;5.442;2022-08-19T00:40:36;101418.22;;;18.35;81.75
71966;BME280;59836;52.132;5.442;2022-08-19T00:43:10;101413.84;;;18.34;81.92
71966;BME280;59836;52.132;5.442;2022-08-19T00:45:40;101407.84;;;18.32;81.86
71966;BME280;59836;52.132;5.442;2022-08-19T00:48:10;101410.91;;;18.30;81.85
71966;BME280;59836;52.132;5.442;2022-08-19T00:50:41;101411.72;;;18.31;81.81
71966;BME280;59836;52.132;5.442;2022-08-19T00:53:22;101410.72;;;18.26;81.81
71966;BME280;59836;52.132;5.442;2022-08-19T00:55:51;101414.59;;;18.25;81.88
71966;BME280;59836;52.132;5.442;2022-08-19T00:58:22;101404.50;;;18.21;82.03
71966;BME280;59836;52.132;5.442;2022-08-19T01:00:53;101404.84;;;18.19;82.38
71966;BME280;59836;52.132;5.442;2022-08-19T01:03:29;101409.72;;;18.22;81.80
71966;BME280;59836;52.132;5.442;2022-08-19T01:06:16;101413.56;;;18.21;81.69
71966;BME280;59836;52.132;5.442;2022-08-19T01:08:47;101415.81;;;18.19;81.97
71966;BME280;59836;52.132;5.442;2022-08-19T01:11:20;101412.34;;;18.13;81.77
71966;BME280;59836;52.132;5.442;2022-08-19T01:13:48;101408.28;;;18.11;81.75
71966;BME280;59836;52.132;5.442;2022-08-19T01:16:40;101415.00;;;18.05;82.00
71966;BME280;59836;52.132;5.442;2022-08-19T01:19:44;101412.38;;;17.99;81.92
71966;BME280;59836;52.132;5.442;2022-08-19T01:22:37;101408.41;;;17.92;82.23
71966;BME280;59836;52.132;5.442;2022-08-19T01:25:06;101407.06;;;17.89;82.58
71966;BME280;59836;52.132;5.442;2022-08-19T01:27:49;101406.44;;;17.92;82.43
71966;BME280;59836;52.132;5.442;2022-08-19T01:30:28;101409.19;;;17.92;82.33
71966;BME280;59836;52.132;5.442;2022-08-19T01:32:59;101410.53;;;17.95;82.13
71966;BME280;59836;52.132;5.442;2022-08-19T01:35:40;101416.22;;;17.98;82.03
71966;BME280;59836;52.132;5.442;2022-08-19T01:38:25;101415.41;;;17.98;82.00
71966;BME280;59836;52.132;5.442;2022-08-19T01:40:52;101413.78;;;17.97;81.62
71966;BME280;59836;52.132;5.442;2022-08-19T01:43:19;101405.03;;;17.95;81.66
71966;BME280;59836;52.132;5.442;2022-08-19T01:45:47;101412.78;;;17.93;81.70
71966;BME280;59836;52.132;5.442;2022-08-19T01:48:14;101405.44;;;17.88;81.71
71966;BME280;59836;52.132;5.442;2022-08-19T01:50:45;101406.03;;;17.85;81.87
71966;BME280;59836;52.132;5.442;2022-08-19T01:53:15;101406.03;;;17.85;81.63
71966;BME280;59836;52.132;5.442;2022-08-19T01:56:02;101408.28;;;17.83;81.69
71966;BME280;59836;52.132;5.442;2022-08-19T01:58:53;101407.88;;;17.76;81.80
71966;BME280;59836;52.132;5.442;2022-08-19T02:01:21;101413.38;;;17.76;81.72
71966;BME280;59836;52.132;5.442;2022-08-19T02:04:04;101421.59;;;17.76;81.78
71966;BME280;59836;52.132;5.442;2022-08-19T02:06:32;101425.97;;;17.77;81.57
71966;BME280;59836;52.132;5.442;2022-08-19T02:08:59;101414.56;;;17.69;81.88
71966;BME280;59836;52.132;5.442;2022-08-19T02:11:29;101419.03;;;17.65;82.40
71966;BME280;59836;52.132;5.442;2022-08-19T02:14:06;101416.19;;;17.70;81.94
71966;BME280;59836;52.132;5.442;2022-08-19T02:16:40;101420.06;;;17.69;81.71
71966;BME280;59836;52.132;5.442;2022-08-19T02:19:35;101426.16;;;17.66;81.79
71966;BME280;59836;52.132;5.442;2022-08-19T02:22:04;101416.00;;;17.67;81.83
71966;BME280;59836;52.132;5.442;2022-08-19T02:24:31;101419.25;;;17.69;81.43
71966;BME280;59836;52.132;5.442;2022-08-19T02:27:08;101415.69;;;17.68;81.20
71966;BME280;59836;52.132;5.442;2022-08-19T02:29:47;101422.09;;;17.64;81.01
71966;BME280;59836;52.132;5.442;2022-08-19T02:32:19;101427.28;;;17.65;81.09
71966;BME280;59836;52.132;5.442;2022-08-19T02:34:52;101424.94;;;17.59;81.21
71966;BME280;59836;52.132;5.442;2022-08-19T02:37:18;101427.47;;;17.55;81.30
71966;BME280;59836;52.132;5.442;2022-08-19T02:40:04;101437.91;;;17.53;81.19
71966;BME280;59836;52.132;5.442;2022-08-19T02:42:38;101436.41;;;17.47;81.62
71966;BME280;59836;52.132;5.442;2022-08-19T02:45:08;101434.28;;;17.44;81.53
71966;BME280;59836;52.132;5.442;2022-08-19T02:47:35;101442.38;;;17.35;82.11
71966;BME280;59836;52.132;5.442;2022-08-19T02:50:04;101444.31;;;17.34;82.25
71966;BME280;59836;52.132;5.442;2022-08-19T02:55:46;101431.13;;;17.36;82.49
71966;BME280;59836;52.132;5.442;2022-08-19T02:58:22;101433.25;;;17.39;82.43
71966;BME280;59836;52.132;5.442;2022-08-19T03:00:56;101431.22;;;17.45;82.55
71966;BME280;59836;52.132;5.442;2022-08-19T03:03:23;101439.75;;;17.44;82.26
71966;BME280;59836;52.132;5.442;2022-08-19T03:05:50;101440.97;;;17.37;82.36
71966;BME280;59836;52.132;5.442;2022-08-19T03:08:23;101439.84;;;17.38;82.40
71966;BME280;59836;52.132;5.442;2022-08-19T03:10:50;101434.97;;;17.35;82.24
71966;BME280;59836;52.132;5.442;2022-08-19T03:13:24;101430.59;;;17.34;82.15
71966;BME280;59836;52.132;5.442;2022-08-19T03:15:55;101430.19;;;17.27;82.43
71966;BME280;59836;52.132;5.442;2022-08-19T03:18:22;101422.56;;;17.24;82.61
71966;BME280;59836;52.132;5.442;2022-08-19T03:20:51;101420.50;;;17.16;82.85
71966;BME280;59836;52.132;5.442;2022-08-19T03:23:19;101424.28;;;17.20;82.73
71966;BME280;59836;52.132;5.442;2022-08-19T03:25:52;101421.94;;;17.27;82.28
71966;BME280;59836;52.132;5.442;2022-08-19T03:28:44;101420.84;;;17.28;82.25
71966;BME280;59836;52.132;5.442;2022-08-19T03:31:25;101415.34;;;17.28;82.20
71966;BME280;59836;52.132;5.442;2022-08-19T03:34:24;101411.50;;;17.29;82.01
71966;BME280;59836;52.132;5.442;2022-08-19T03:37:08;101409.38;;;17.26;81.92
71966;BME280;59836;52.132;5.442;2022-08-19T03:39:37;101416.66;;;17.17;81.96
71966;BME280;59836;52.132;5.442;2022-08-19T03:42:08;101414.19;;;17.15;82.47
71966;BME280;59836;52.132;5.442;2022-08-19T03:45:02;101424.88;;;17.17;81.96
71966;BME280;59836;52.132;5.442;2022-08-19T03:47:29;101430.88;;;17.19;81.73
71966;BME280;59836;52.132;5.442;2022-08-19T03:49:56;101424.88;;;17.17;81.55
71966;BME280;59836;52.132;5.442;2022-08-19T03:52:23;101425.47;;;17.14;81.72
71966;BME280;59836;52.132;5.442;2022-08-19T03:54:51;101419.56;;;17.06;81.34
71966;BME280;59836;52.132;5.442;2022-08-19T03:57:19;101419.94;;;17.00;82.08
71966;BME280;59836;52.132;5.442;2022-08-19T03:59:49;101416.16;;;16.95;81.99
71966;BME280;59836;52.132;5.442;2022-08-19T04:02:15;101419.69;;;16.96;81.93
71966;BME280;59836;52.132;5.442;2022-08-19T04:04:53;101428.47;;;16.98;81.99
71966;BME280;59836;52.132;5.442;2022-08-19T04:07:21;101420.25;;;16.98;81.76
71966;BME280;59836;52.132;5.442;2022-08-19T04:09:51;101418.06;;;16.95;81.96
71966;BME280;59836;52.132;5.442;2022-08-19T04:12:29;101409.28;;;16.98;81.91
71966;BME280;59836;52.132;5.442;2022-08-19T04:14:56;101406.53;;;16.98;82.04
71966;BME280;59836;52.132;5.442;2022-08-19T04:17:24;101398.84;;;17.00;82.04
71966;BME280;59836;52.132;5.442;2022-08-19T04:20:11;101395.56;;;16.98;81.82
71966;BME280;59836;52.132;5.442;2022-08-19T04:22:38;101400.50;;;16.96;82.00
71966;BME280;59836;52.132;5.442;2022-08-19T04:25:34;101408.22;;;16.94;81.96
71966;BME280;59836;52.132;5.442;2022-08-19T04:28:01;101403.84;;;16.93;81.64
71966;BME280;59836;52.132;5.442;2022-08-19T04:30:37;101408.81;;;16.91;82.04
71966;BME280;59836;52.132;5.442;2022-08-19T04:33:24;101402.03;;;16.88;82.17
71966;BME280;59836;52.132;5.442;2022-08-19T04:35:53;101403.34;;;16.91;82.18
71966;BME280;59836;52.132;5.442;2022-08-19T04:38:21;101409.13;;;16.89;82.21
71966;BME280;59836;52.132;5.442;2022-08-19T04:40:51;101409.50;;;16.82;82.59
71966;BME280;59836;52.132;5.442;2022-08-19T04:43:37;101416.00;;;16.87;82.45
71966;BME280;59836;52.132;5.442;2022-08-19T04:46:10;101404.44;;;16.90;82.43
71966;BME280;59836;52.132;5.442;2022-08-19T04:49:18;101399.56;;;16.87;82.23
71966;BME280;59836;52.132;5.442;2022-08-19T04:51:49;101402.63;;;16.85;82.57
71966;BME280;59836;52.132;5.442;2022-08-19T04:54:27;101401.19;;;16.88;82.52
71966;BME280;59836;52.132;5.442;2022-08-19T04:57:08;101396.91;;;16.81;82.37
71966;BME280;59836;52.132;5.442;2022-08-19T04:59:38;101405.72;;;16.78;82.63
71966;BME280;59836;52.132;5.442;2022-08-19T05:02:10;101408.25;;;16.75;82.65
71966;BME280;59836;52.132;5.442;2022-08-19T05:04:36;101404.41;;;16.76;82.85
71966;BME280;59836;52.132;5.442;2022-08-19T05:07:06;101413.34;;;16.81;82.52
71966;BME280;59836;52.132;5.442;2022-08-19T05:09:42;101406.75;;;16.82;82.64
71966;BME280;59836;52.132;5.442;2022-08-19T05:15:39;101421.88;;;16.80;82.69
71966;BME280;59836;52.132;5.442;2022-08-19T05:18:06;101420.44;;;16.82;82.80
71966;BME280;59836;52.132;5.442;2022-08-19T05:21:06;101425.72;;;16.79;82.90
71966;BME280;59836;52.132;5.442;2022-08-19T05:24:22;101422.66;;;16.80;83.36
71966;BME280;59836;52.132;5.442;2022-08-19T05:30:06;101423.25;;;16.77;83.58
71966;BME280;59836;52.132;5.442;2022-08-19T05:32:39;101426.31;;;16.76;83.85
71966;BME280;59836;52.132;5.442;2022-08-19T05:35:06;101423.50;;;16.81;84.02
71966;BME280;59836;52.132;5.442;2022-08-19T05:37:38;101424.81;;;16.83;83.95
71966;BME280;59836;52.132;5.442;2022-08-19T05:40:20;101427.19;;;16.90;83.82
71966;BME280;59836;52.132;5.442;2022-08-19T05:42:52;101428.50;;;16.93;83.92
71966;BME280;59836;52.132;5.442;2022-08-19T05:45:20;101430.13;;;16.94;84.23
71966;BME280;59836;52.132;5.442;2022-08-19T05:47:48;101434.50;;;16.95;84.23
71966;BME280;59836;52.132;5.442;2022-08-19T05:50:16;101441.09;;;16.94;84.55
71966;BME280;59836;52.132;5.442;2022-08-19T05:52:46;101434.50;;;16.95;84.54
71966;BME280;59836;52.132;5.442;2022-08-19T05:55:27;101437.78;;;16.97;84.43
71966;BME280;59836;52.132;5.442;2022-08-19T05:57:54;101427.13;;;16.95;84.79
71966;BME280;59836;52.132;5.442;2022-08-19T06:00:21;101429.25;;;16.99;84.98
71966;BME280;59836;52.132;5.442;2022-08-19T06:02:50;101424.59;;;16.99;84.86
71966;BME280;59836;52.132;5.442;2022-08-19T06:05:17;101425.63;;;17.03;85.03
71966;BME280;59836;52.132;5.442;2022-08-19T06:07:44;101425.63;;;17.03;85.22
71966;BME280;59836;52.132;5.442;2022-08-19T06:10:23;101431.31;;;17.07;85.21
71966;BME280;59836;52.132;5.442;2022-08-19T06:12:56;101421.09;;;17.13;85.40
71966;BME280;59836;52.132;5.442;2022-08-19T06:15:40;101423.53;;;17.14;85.44
71966;BME280;59836;52.132;5.442;2022-08-19T06:18:28;101424.88;;;17.17;85.68
71966;BME280;59836;52.132;5.442;2022-08-19T06:20:56;101427.53;;;17.22;85.75
71966;BME280;59836;52.132;5.442;2022-08-19T06:23:22;101437.28;;;17.28;86.46
71966;BME280;59836;52.132;5.442;2022-08-19T06:25:49;101433.63;;;17.33;86.45
71966;BME280;59836;52.132;5.442;2022-08-19T06:28:31;101425.03;;;17.39;86.26
71966;BME280;59836;52.132;5.442;2022-08-19T06:31:05;101422.72;;;17.47;86.67
71966;BME280;59836;52.132;5.442;2022-08-19T06:33:40;101422.28;;;17.53;86.62
71966;BME280;59836;52.132;5.442;2022-08-19T06:36:38;101427.38;;;17.60;86.62
71966;BME280;59836;52.132;5.442;2022-08-19T06:39:23;101430.53;;;17.67;86.88
71966;BME280;59836;52.132;5.442;2022-08-19T06:42:00;101427.41;;;17.74;86.79
71966;BME280;59836;52.132;5.442;2022-08-19T06:44:29;101439.59;;;17.82;86.91
71966;BME280;59836;52.132;5.442;2022-08-19T06:47:23;101433.91;;;17.92;86.86
71966;BME280;59836;52.132;5.442;2022-08-19T06:49:58;101423.34;;;17.99;86.83
71966;BME280;59836;52.132;5.442;2022-08-19T06:52:50;101426.50;;;18.07;87.34
71966;BME280;59836;52.132;5.442;2022-08-19T06:55:16;101436.25;;;18.13;87.96
71966;BME280;59836;52.132;5.442;2022-08-19T06:57:44;101433.09;;;18.20;87.80
71966;BME280;59836;52.132;5.442;2022-08-19T07:00:12;101439.28;;;18.25;87.13
71966;BME280;59836;52.132;5.442;2022-08-19T07:02:44;101431.44;;;18.33;88.02
71966;BME280;59836;52.132;5.442;2022-08-19T07:05:22;101445.69;;;18.35;87.52
71966;BME280;59836;52.132;5.442;2022-08-19T07:07:51;101447.31;;;18.36;87.32
71966;BME280;59836;52.132;5.442;2022-08-19T07:10:18;101441.81;;;18.36;87.88
71966;BME280;59836;52.132;5.442;2022-08-19T07:12:54;101434.69;;;18.35;87.65
71966;BME280;59836;52.132;5.442;2022-08-19T07:15:22;101441.00;;;18.35;87.61
71966;BME280;59836;52.132;5.442;2022-08-19T07:17:49;101451.38;;;18.38;87.65
71966;BME280;59836;52.132;5.442;2022-08-19T07:20:18;101445.56;;;18.40;87.49
71966;BME280;59836;52.132;5.442;2022-08-19T07:22:44;101450.13;;;18.44;87.23
71966;BME280;59836;52.132;5.442;2022-08-19T07:25:37;101452.47;;;18.51;87.27
71966;BME280;59836;52.132;5.442;2022-08-19T07:28:06;101440.38;;;18.52;87.18
71966;BME280;59836;52.132;5.442;2022-08-19T07:30:51;101447.16;;;18.55;87.25
71966;BME280;59836;52.132;5.442;2022-08-19T07:33:18;101446.03;;;18.56;87.07
71966;BME280;59836;52.132;5.442;2022-08-19T07:35:44;101448.47;;;18.57;87.35
71966;BME280;59836;52.132;5.442;2022-08-19T07:38:11;101443.19;;;18.61;87.31
71966;BME280;59836;52.132;5.442;2022-08-19T07:40:37;101447.72;;;18.66;87.13
71966;BME280;59836;52.132;5.442;2022-08-19T07:43:05;101446.00;;;18.70;87.07
71966;BME280;59836;52.132;5.442;2022-08-19T07:45:32;101445.38;;;18.73;86.78
71966;BME280;59836;52.132;5.442;2022-08-19T07:48:03;101446.69;;;18.76;86.76
71966;BME280;59836;52.132;5.442;2022-08-19T07:50:32;101442.00;;;18.76;86.56
71966;BME280;59836;52.132;5.442;2022-08-19T07:53:12;101455.13;;;18.79;86.48
71966;BME280;59836;52.132;5.442;2022-08-19T07:55:50;101452.56;;;18.83;86.35
71966;BME280;59836;52.132;5.442;2022-08-19T07:58:25;101459.38;;;18.85;86.83
71966;BME280;59836;52.132;5.442;2022-08-19T08:00:55;101462.00;;;18.91;86.70
71966;BME280;59836;52.132;5.442;2022-08-19T08:03:22;101472.06;;;18.95;86.75
71966;BME280;59836;52.132;5.442;2022-08-19T08:06:15;101475.63;;;18.96;86.14
71966;BME280;59836;52.132;5.442;2022-08-19T08:09:02;101477.56;;;18.95;85.45
71966;BME280;59836;52.132;5.442;2022-08-19T08:11:44;101477.56;;;18.95;85.38
71966;BME280;59836;52.132;5.442;2022-08-19T08:14:34;101480.53;;;18.99;84.85
71966;BME280;59836;52.132;5.442;2022-08-19T08:17:03;101485.41;;;19.02;84.99
71966;BME280;59836;52.132;5.442;2022-08-19T08:19:41;101489.03;;;19.11;85.50
71966;BME280;59836;52.132;5.442;2022-08-19T08:22:29;101483.91;;;19.18;84.64
71966;BME280;59836;52.132;5.442;2022-08-19T08:25:17;101482.66;;;19.25;84.63
71966;BME280;59836;52.132;5.442;2022-08-19T08:27:46;101492.41;;;19.31;84.76
71966;BME280;59836;52.132;5.442;2022-08-19T08:30:21;101497.16;;;19.39;83.80
71966;BME280;59836;52.132;5.442;2022-08-19T08:32:50;101501.34;;;19.37;83.50
71966;BME280;59836;52.132;5.442;2022-08-19T08:35:28;101506.53;;;19.38;84.02
71966;BME280;59836;52.132;5.442;2022-08-19T08:37:55;101509.78;;;19.40;83.52
71966;BME280;59836;52.132;5.442;2022-08-19T08:40:39;101511.91;;;19.43;83.46
71966;BME280;59836;52.132;5.442;2022-08-19T08:43:22;101509.81;;;19.49;83.43
71966;BME280;59836;52.132;5.442;2022-08-19T08:45:57;101512.44;;;19.54;82.75
71966;BME280;59836;52.132;5.442;2022-08-19T08:49:00;101508.78;;;19.59;81.98
71966;BME280;59836;52.132;5.442;2022-08-19T08:51:51;101520.13;;;19.66;82.08
71966;BME280;59836;52.132;5.442;2022-08-19T08:54:32;101517.22;;;19.71;81.92
71966;BME280;59836;52.132;5.442;2022-08-19T08:57:04;101515.81;;;19.74;82.11
71966;BME280;59836;52.132;5.442;2022-08-19T08:59:39;101510.59;;;19.72;81.82
71966;BME280;59836;52.132;5.442;2022-08-19T09:02:08;101508.69;;;19.73;81.90
71966;BME280;59836;52.132;5.442;2022-08-19T09:04:44;101509.97;;;19.75;81.91
71966;BME280;59836;52.132;5.442;2022-08-19T09:07:27;101506.78;;;19.82;81.82
71966;BME280;59836;52.132;5.442;2022-08-19T09:11:04;101502.31;;;19.95;81.98
71966;BME280;59836;52.132;5.442;2022-08-19T09:16:21;101507.56;;;20.14;81.57
71966;BME280;59836;52.132;5.442;2022-08-19T09:19:09;101509.03;;;20.20;80.77
71966;BME280;59836;52.132;5.442;2022-08-19T09:21:37;101509.03;;;20.20;80.02
71966;BME280;59836;52.132;5.442;2022-08-19T09:24:08;101517.50;;;20.24;80.05
71966;BME280;59836;52.132;5.442;2022-08-19T09:26:38;101521.72;;;20.30;80.15
71966;BME280;59836;52.132;5.442;2022-08-19T09:29:24;101512.19;;;20.37;79.95
71966;BME280;59836;52.132;5.442;2022-08-19T09:32:04;101505.69;;;20.41;79.65
71966;BME280;59836;52.132;5.442;2022-08-19T09:34:54;101510.25;;;20.55;79.34
71966;BME280;59836;52.132;5.442;2022-08-19T09:37:26;101506.56;;;20.59;79.40
71966;BME280;59836;52.132;5.442;2022-08-19T09:39:53;101512.06;;;20.68;79.59
71966;BME280;59836;52.132;5.442;2022-08-19T09:42:20;101505.94;;;20.80;78.50
71966;BME280;59836;52.132;5.442;2022-08-19T09:44:55;101508.88;;;20.84;78.58
71966;BME280;59836;52.132;5.442;2022-08-19T09:47:25;101509.50;;;20.89;78.63
71966;BME280;59836;52.132;5.442;2022-08-19T09:50:23;101504.31;;;20.97;78.59
71966;BME280;59836;52.132;5.442;2022-08-19T09:53:00;101509.69;;;21.02;78.37
71966;BME280;59836;52.132;5.442;2022-08-19T09:55:27;101501.06;;;21.12;78.28
71966;BME280;59836;52.132;5.442;2022-08-19T09:57:59;101506.56;;;21.21;78.07
71966;BME280;59836;52.132;5.442;2022-08-19T10:00:25;101502.50;;;21.27;77.70
71966;BME280;59836;52.132;5.442;2022-08-19T10:03:04;101505.13;;;21.23;76.61
71966;BME280;59836;52.132;5.442;2022-08-19T10:05:40;101503.03;;;21.20;76.89
71966;BME280;59836;52.132;5.442;2022-08-19T10:08:26;101502.19;;;21.29;77.64
71966;BME280;59836;52.132;5.442;2022-08-19T10:10:54;101505.59;;;21.43;75.08
71966;BME280;59836;52.132;5.442;2022-08-19T10:13:24;101501.81;;;21.57;75.00
71966;BME280;59836;52.132;5.442;2022-08-19T10:15:53;101506.84;;;21.72;74.57
71966;BME280;59836;52.132;5.442;2022-08-19T10:18:23;101504.34;;;21.79;74.83
71966;BME280;59836;52.132;5.442;2022-08-19T10:21:02;101501.09;;;21.86;74.00
71966;BME280;59836;52.132;5.442;2022-08-19T10:23:29;101506.75;;;21.90;73.85
71966;BME280;59836;52.132;5.442;2022-08-19T10:26:16;101499.28;;;21.90;74.34
71966;BME280;59836;52.132;5.442;2022-08-19T10:28:44;101496.38;;;21.87;73.14
71966;BME280;59836;52.132;5.442;2022-08-19T10:31:15;101499.78;;;21.83;74.38
71966;BME280;59836;52.132;5.442;2022-08-19T10:33:45;101493.41;;;21.92;73.74
71966;BME280;59836;52.132;5.442;2022-08-19T10:36:39;101494.50;;;22.08;72.92
71966;BME280;59836;52.132;5.442;2022-08-19T10:39:21;101495.25;;;22.18;71.40
71966;BME280;59836;52.132;5.442;2022-08-19T10:41:48;101499.44;;;22.24;72.52
71966;BME280;59836;52.132;5.442;2022-08-19T10:44:52;101497.94;;;22.26;72.85
71966;BME280;59836;52.132;5.442;2022-08-19T10:47:18;101492.78;;;22.25;72.05
71966;BME280;59836;52.132;5.442;2022-08-19T10:49:55;101487.53;;;22.32;72.12
71966;BME280;59836;52.132;5.442;2022-08-19T10:52:43;101486.50;;;22.37;72.28
71966;BME280;59836;52.132;5.442;2022-08-19T10:55:15;101485.19;;;22.43;70.79
71966;BME280;59836;52.132;5.442;2022-08-19T10:58:00;101489.06;;;22.51;71.06
71966;BME280;59836;52.132;5.442;2022-08-19T11:00:28;101478.97;;;22.55;71.72
71966;BME280;59836;52.132;5.442;2022-08-19T11:02:57;101477.41;;;22.66;72.54
71966;BME280;59836;52.132;5.442;2022-08-19T11:05:23;101474.50;;;22.84;71.22
71966;BME280;59836;52.132;5.442;2022-08-19T11:07:50;101472.25;;;22.98;72.09
71966;BME280;59836;52.132;5.442;2022-08-19T11:10:18;101479.66;;;23.07;71.82
71966;BME280;59836;52.132;5.442;2022-08-19T11:13:08;101472.28;;;23.11;71.09
71966;BME280;59836;52.132;5.442;2022-08-19T11:15:34;101470.22;;;23.08;69.92
71966;BME280;59836;52.132;5.442;2022-08-19T11:18:06;101473.91;;;23.12;70.79
71966;BME280;59836;52.132;5.442;2022-08-19T11:20:42;101469.06;;;23.09;70.27
71966;BME280;59836;52.132;5.442;2022-08-19T11:23:10;101470.81;;;23.13;71.00
71966;BME280;59836;52.132;5.442;2022-08-19T11:25:38;101467.97;;;23.22;71.00
71966;BME280;59836;52.132;5.442;2022-08-19T11:28:05;101464.41;;;23.22;71.13
71966;BME280;59836;52.132;5.442;2022-08-19T11:30:31;101471.41;;;23.19;71.03
71966;BME280;59836;52.132;5.442;2022-08-19T11:32:59;101464.00;;;23.11;71.11
71966;BME280;59836;52.132;5.442;2022-08-19T11:35:27;101464.22;;;23.06;71.08
71966;BME280;59836;52.132;5.442;2022-08-19T11:37:54;101455.22;;;23.09;71.41
71966;BME280;59836;52.132;5.442;2022-08-19T11:40:22;101457.25;;;23.21;72.55
71966;BME280;59836;52.132;5.442;2022-08-19T11:42:48;101452.19;;;23.23;71.48
71966;BME280;59836;52.132;5.442;2022-08-19T11:45:26;101451.16;;;23.27;70.44
71966;BME280;59836;52.132;5.442;2022-08-19T11:47:53;101445.53;;;23.24;70.38
71966;BME280;59836;52.132;5.442;2022-08-19T11:50:21;101454.47;;;23.21;71.65
71966;BME280;59836;52.132;5.442;2022-08-19T11:52:49;101454.41;;;23.29;71.07
71966;BME280;59836;52.132;5.442;2022-08-19T11:55:16;101461.09;;;23.28;72.25
71966;BME280;59836;52.132;5.442;2022-08-19T11:57:42;101453.94;;;23.27;72.24
71966;BME280;59836;52.132;5.442;2022-08-19T12:00:10;101453.81;;;23.24;71.78
71966;BME280;59836;52.132;5.442;2022-08-19T12:02:39;101461.56;;;23.31;71.44
71966;BME280;59836;52.132;5.442;2022-08-19T12:05:06;101454.66;;;23.37;72.22
71966;BME280;59836;52.132;5.442;2022-08-19T12:07:38;101457.06;;;23.38;71.46
71966;BME280;59836;52.132;5.442;2022-08-19T12:10:04;101458.56;;;23.36;71.20
71966;BME280;59836;52.132;5.442;2022-08-19T12:12:31;101454.88;;;23.32;71.87
71966;BME280;59836;52.132;5.442;2022-08-19T12:14:57;101458.78;;;23.31;72.43
71966;BME280;59836;52.132;5.442;2022-08-19T12:17:27;101468.25;;;23.29;72.17
71966;BME280;59836;52.132;5.442;2022-08-19T12:19:54;101457.84;;;23.26;73.08
71966;BME280;59836;52.132;5.442;2022-08-19T12:22:21;101468.44;;;23.24;72.57
71966;BME280;59836;52.132;5.442;2022-08-19T12:24:48;101466.56;;;23.16;72.86
71966;BME280;59836;52.132;5.442;2022-08-19T12:27:17;101467.44;;;23.08;72.72
71966;BME280;59836;52.132;5.442;2022-08-19T12:30:05;101472.13;;;22.95;73.82
71966;BME280;59836;52.132;5.442;2022-08-19T12:32:32;101463.22;;;22.89;74.56
71966;BME280;59836;52.132;5.442;2022-08-19T12:34:59;101457.56;;;22.85;74.66
71966;BME280;59836;52.132;5.442;2022-08-19T12:37:25;101465.25;;;22.80;74.53
71966;BME280;59836;52.132;5.442;2022-08-19T12:39:52;101459.94;;;22.75;74.45
71966;BME280;59836;52.132;5.442;2022-08-19T12:42:19;101460.16;;;22.69;73.96
71966;BME280;59836;52.132;5.442;2022-08-19T12:44:48;101467.81;;;22.64;73.83
71966;BME280;59836;52.132;5.442;2022-08-19T12:47:14;101461.34;;;22.60;74.43
71966;BME280;59836;52.132;5.442;2022-08-19T12:49:41;101472.28;;;22.56;75.44
71966;BME280;59836;52.132;5.442;2022-08-19T12:52:22;101465.81;;;22.52;75.54
71966;BME280;59836;52.132;5.442;2022-08-19T12:54:50;101463.84;;;22.52;76.04
71966;BME280;59836;52.132;5.442;2022-08-19T12:57:20;101463.53;;;22.54;75.42
71966;BME280;59836;52.132;5.442;2022-08-19T12:59:52;101455.97;;;22.63;75.11
71966;BME280;59836;52.132;5.442;2022-08-19T13:02:22;101449.09;;;22.69;75.59
71966;BME280;59836;52.132;5.442;2022-08-19T13:04:49;101453.94;;;22.73;75.10
71966;BME280;59836;52.132;5.442;2022-08-19T13:07:17;101451.50;;;22.71;75.08
71966;BME280;59836;52.132;5.442;2022-08-19T13:09:43;101450.72;;;22.70;74.98
71966;BME280;59836;52.132;5.442;2022-08-19T13:12:10;101448.16;;;22.65;75.44
71966;BME280;59836;52.132;5.442;2022-08-19T13:14:39;101459.88;;;22.62;75.11
71966;BME280;59836;52.132;5.442;2022-08-19T13:17:07;101459.41;;;22.60;75.97
71966;BME280;59836;52.132;5.442;2022-08-19T13:19:36;101458.13;;;22.58;76.04
71966;BME280;59836;52.132;5.442;2022-08-19T13:22:03;101464.47;;;22.58;75.79
71966;BME280;59836;52.132;5.442;2022-08-19T13:24:39;101454.09;;;22.55;76.49
71966;BME280;59836;52.132;5.442;2022-08-19T13:27:12;101466.13;;;22.50;76.47
71966;BME280;59836;52.132;5.442;2022-08-19T13:29:40;101461.63;;;22.46;78.11
71966;BME280;59836;52.132;5.442;2022-08-19T13:32:25;101454.31;;;22.41;77.70
71966;BME280;59836;52.132;5.442;2022-08-19T13:35:17;101455.78;;;22.38;77.77
71966;BME280;59836;52.132;5.442;2022-08-19T13:37:44;101454.84;;;22.34;78.53